sensor_id;sensor_type;location;lat;lon;timestamp;temperature;humidity
79513;SHT31;68962;51.980;5.678;2023-06-26T00:01:37;26.5;51.1
79513;SHT31;68962;51.980;5.678;2023-06-26T00:04:06;26.5;50.8
79513;SHT31;68962;51.980;5.678;2023-06-26T00:06:39;26.5;50.6
79513;SHT31;68962;51.980;5.678;2023-06-26T00:09:12;26.6;50.6
79513;SHT31;68962;51.980;5.678;2023-06-26T00:11:45;26.6;50.6
79513;SHT31;68962;51.980;5.678;2023-06-26T00:14:13;26.6;50.3
79513;SHT31;68962;51.980;5.678;2023-06-26T00:16:42;26.6;50.3
79513;SHT31;68962;51.980;5.678;2023-06-26T00:19:10;26.7;50.2
79513;SHT31;68962;51.980;5.678;2023-06-26T00:26:33;26.7;50.3
79513;SHT31;68962;51.980;5.678;2023-06-26T00:29:01;26.7;50.1
79513;SHT31;68962;51.980;5.678;2023-06-26T00:31:30;26.7;50.0
79513;SHT31;68962;51.980;5.678;2023-06-26T00:34:06;26.7;49.9
79513;SHT31;68962;51.980;5.678;2023-06-26T00:36:34;26.7;49.8
79513;SHT31;68962;51.980;5.678;2023-06-26T00:39:03;26.6;49.9
79513;SHT31;68962;51.980;5.678;2023-06-26T00:41:31;26.5;50.5
79513;SHT31;68962;51.980;5.678;2023-06-26T00:44:00;26.3;50.9
79513;SHT31;68962;51.980;5.678;2023-06-26T00:46:29;26.2;51.3
79513;SHT31;68962;51.980;5.678;2023-06-26T00:48:59;26.1;51.8
79513;SHT31;68962;51.980;5.678;2023-06-26T00:51:30;26.0;52.2
79513;SHT31;68962;51.980;5.678;2023-06-26T00:54:00;25.8;52.7
79513;SHT31;68962;51.980;5.678;2023-06-26T00:56:30;25.8;52.9
79513;SHT31;68962;51.980;5.678;2023-06-26T00:58:59;25.7;53.2
79513;SHT31;68962;51.980;5.678;2023-06-26T01:01:30;25.6;53.6
79513;SHT31;68962;51.980;5.678;2023-06-26T01:03:58;25.6;53.6
79513;SHT31;68962;51.980;5.678;2023-06-26T01:06:28;25.5;53.6
79513;SHT31;68962;51.980;5.678;2023-06-26T01:08:58;25.5;53.7
79513;SHT31;68962;51.980;5.678;2023-06-26T01:11:28;25.4;54.0
79513;SHT31;68962;51.980;5.678;2023-06-26T01:14:01;25.4;54.4
79513;SHT31;68962;51.980;5.678;2023-06-26T01:16:30;25.3;54.5
79513;SHT31;68962;51.980;5.678;2023-06-26T01:18:59;25.3;54.7
79513;SHT31;68962;51.980;5.678;2023-06-26T01:21:28;25.3;54.8
79513;SHT31;68962;51.980;5.678;2023-06-26T01:24:07;25.2;55.0
79513;SHT31;68962;51.980;5.678;2023-06-26T01:26:42;25.2;54.9
79513;SHT31;68962;51.980;5.678;2023-06-26T01:29:16;25.1;55.0
79513;SHT31;68962;51.980;5.678;2023-06-26T01:31:48;25.1;54.8
79513;SHT31;68962;51.980;5.678;2023-06-26T01:34:18;25.1;54.6
79513;SHT31;68962;51.980;5.678;2023-06-26T01:36:46;25.0;54.3
79513;SHT31;68962;51.980;5.678;2023-06-26T01:39:17;25.0;54.3
79513;SHT31;68962;51.980;5.678;2023-06-26T01:41:46;25.0;54.0
79513;SHT31;68962;51.980;5.678;2023-06-26T01:44:25;24.9;53.9
79513;SHT31;68962;51.980;5.678;2023-06-26T01:46:59;24.9;53.8
79513;SHT31;68962;51.980;5.678;2023-06-26T01:49:35;24.9;53.7
79513;SHT31;68962;51.980;5.678;2023-06-26T01:52:19;24.9;53.6
79513;SHT31;68962;51.980;5.678;2023-06-26T01:54:55;24.8;53.3
79513;SHT31;68962;51.980;5.678;2023-06-26T01:57:22;24.8;53.1
79513;SHT31;68962;51.980;5.678;2023-06-26T01:59:55;24.8;53.3
79513;SHT31;68962;51.980;5.678;2023-06-26T02:02:25;24.8;52.9
79513;SHT31;68962;51.980;5.678;2023-06-26T02:04:56;24.8;53.0
79513;SHT31;68962;51.980;5.678;2023-06-26T02:07:26;24.8;52.9
79513;SHT31;68962;51.980;5.678;2023-06-26T02:09:55;24.8;52.7
79513;SHT31;68962;51.980;5.678;2023-06-26T02:12:23;24.8;52.9
79513;SHT31;68962;51.980;5.678;2023-06-26T02:14:52;24.8;52.8
79513;SHT31;68962;51.980;5.678;2023-06-26T02:17:20;24.8;53.2
79513;SHT31;68962;51.980;5.678;2023-06-26T02:19:49;24.8;53.1
79513;SHT31;68962;51.980;5.678;2023-06-26T02:22:19;24.7;53.3
79513;SHT31;68962;51.980;5.678;2023-06-26T02:24:50;24.7;53.5
79513;SHT31;68962;51.980;5.678;2023-06-26T02:27:20;24.6;54.0
79513;SHT31;68962;51.980;5.678;2023-06-26T02:29:49;24.5;54.2
79513;SHT31;68962;51.980;5.678;2023-06-26T02:32:17;24.5;54.5
79513;SHT31;68962;51.980;5.678;2023-06-26T02:34:46;24.4;54.8
79513;SHT31;68962;51.980;5.678;2023-06-26T02:37:14;24.4;55.0
79513;SHT31;68962;51.980;5.678;2023-06-26T02:39:43;24.3;55.2
79513;SHT31;68962;51.980;5.678;2023-06-26T02:42:12;24.2;55.6
79513;SHT31;68962;51.980;5.678;2023-06-26T02:44:41;24.1;56.1
79513;SHT31;68962;51.980;5.678;2023-06-26T02:47:09;24.0;56.3
79513;SHT31;68962;51.980;5.678;2023-06-26T02:49:37;23.9;56.8
79513;SHT31;68962;51.980;5.678;2023-06-26T02:52:06;23.8;57.1
79513;SHT31;68962;51.980;5.678;2023-06-26T02:54:35;23.7;57.5
79513;SHT31;68962;51.980;5.678;2023-06-26T02:57:03;23.6;57.8
79513;SHT31;68962;51.980;5.678;2023-06-26T02:59:33;23.5;58.0
79513;SHT31;68962;51.980;5.678;2023-06-26T03:02:02;23.5;58.4
79513;SHT31;68962;51.980;5.678;2023-06-26T03:04:30;23.5;58.6
79513;SHT31;68962;51.980;5.678;2023-06-26T03:07:02;23.4;58.7
79513;SHT31;68962;51.980;5.678;2023-06-26T03:09:31;23.4;58.7
79513;SHT31;68962;51.980;5.678;2023-06-26T03:12:00;23.4;58.7
79513;SHT31;68962;51.980;5.678;2023-06-26T03:14:29;23.4;58.9
79513;SHT31;68962;51.980;5.678;2023-06-26T03:16:58;23.4;58.9
79513;SHT31;68962;51.980;5.678;2023-06-26T03:19:29;23.4;58.9
79513;SHT31;68962;51.980;5.678;2023-06-26T03:22:00;23.4;59.0
79513;SHT31;68962;51.980;5.678;2023-06-26T03:24:30;23.3;59.2
79513;SHT31;68962;51.980;5.678;2023-06-26T03:27:00;23.3;59.7
79513;SHT31;68962;51.980;5.678;2023-06-26T03:29:29;23.2;59.9
79513;SHT31;68962;51.980;5.678;2023-06-26T03:31:58;23.2;60.1
79513;SHT31;68962;51.980;5.678;2023-06-26T03:34:26;23.1;60.3
79513;SHT31;68962;51.980;5.678;2023-06-26T03:36:57;23.1;60.7
79513;SHT31;68962;51.980;5.678;2023-06-26T03:39:25;23.0;60.9
79513;SHT31;68962;51.980;5.678;2023-06-26T03:41:54;23.0;61.3
79513;SHT31;68962;51.980;5.678;2023-06-26T03:44:27;22.9;61.6
79513;SHT31;68962;51.980;5.678;2023-06-26T03:46:55;22.9;61.7
79513;SHT31;68962;51.980;5.678;2023-06-26T03:49:24;22.9;61.9
79513;SHT31;68962;51.980;5.678;2023-06-26T03:51:54;22.8;62.0
79513;SHT31;68962;51.980;5.678;2023-06-26T03:54:23;22.8;62.2
79513;SHT31;68962;51.980;5.678;2023-06-26T03:56:52;22.8;62.3
79513;SHT31;68962;51.980;5.678;2023-06-26T03:59:21;22.8;62.5
79513;SHT31;68962;51.980;5.678;2023-06-26T04:01:49;22.7;62.7
79513;SHT31;68962;51.980;5.678;2023-06-26T04:04:19;22.7;62.7
79513;SHT31;68962;51.980;5.678;2023-06-26T04:06:47;22.7;63.0
79513;SHT31;68962;51.980;5.678;2023-06-26T04:09:17;22.7;63.1
79513;SHT31;68962;51.980;5.678;2023-06-26T04:11:46;22.7;63.1
79513;SHT31;68962;51.980;5.678;2023-06-26T04:14:14;22.8;63.0
79513;SHT31;68962;51.980;5.678;2023-06-26T04:16:43;22.8;63.0
79513;SHT31;68962;51.980;5.678;2023-06-26T04:19:12;22.9;63.0
79513;SHT31;68962;51.980;5.678;2023-06-26T04:21:43;22.9;62.9
79513;SHT31;68962;51.980;5.678;2023-06-26T04:24:12;23.0;62.7
79513;SHT31;68962;51.980;5.678;2023-06-26T04:26:40;23.1;62.4
79513;SHT31;68962;51.980;5.678;2023-06-26T04:29:12;23.1;62.2
79513;SHT31;68962;51.980;5.678;2023-06-26T04:31:40;23.2;61.9
79513;SHT31;68962;51.980;5.678;2023-06-26T04:34:13;23.3;61.7
79513;SHT31;68962;51.980;5.678;2023-06-26T04:36:42;23.3;61.4
79513;SHT31;68962;51.980;5.678;2023-06-26T04:39:14;23.4;61.3
79513;SHT31;68962;51.980;5.678;2023-06-26T04:41:44;23.4;61.0
79513;SHT31;68962;51.980;5.678;2023-06-26T04:44:12;23.5;61.0
79513;SHT31;68962;51.980;5.678;2023-06-26T04:46:43;23.6;60.5
79513;SHT31;68962;51.980;5.678;2023-06-26T04:49:11;23.7;60.3
79513;SHT31;68962;51.980;5.678;2023-06-26T04:51:44;23.9;59.8
79513;SHT31;68962;51.980;5.678;2023-06-26T04:54:12;24.1;59.0
79513;SHT31;68962;51.980;5.678;2023-06-26T04:56:41;24.5;58.1
79513;SHT31;68962;51.980;5.678;2023-06-26T04:59:10;24.8;57.2
79513;SHT31;68962;51.980;5.678;2023-06-26T05:01:40;25.2;56.0
79513;SHT31;68962;51.980;5.678;2023-06-26T05:04:08;25.5;54.9
79513;SHT31;68962;51.980;5.678;2023-06-26T05:06:37;25.9;54.0
79513;SHT31;68962;51.980;5.678;2023-06-26T05:09:05;26.1;53.3
79513;SHT31;68962;51.980;5.678;2023-06-26T05:11:34;26.4;52.6
79513;SHT31;68962;51.980;5.678;2023-06-26T05:14:03;26.7;51.6
79513;SHT31;68962;51.980;5.678;2023-06-26T05:16:33;27.0;50.9
79513;SHT31;68962;51.980;5.678;2023-06-26T05:19:02;27.3;50.1
79513;SHT31;68962;51.980;5.678;2023-06-26T05:21:32;27.6;48.5
79513;SHT31;68962;51.980;5.678;2023-06-26T05:24:02;28.0;47.4
79513;SHT31;68962;51.980;5.678;2023-06-26T05:26:33;28.2;46.3
79513;SHT31;68962;51.980;5.678;2023-06-26T05:29:02;28.4;45.7
79513;SHT31;68962;51.980;5.678;2023-06-26T05:31:32;28.5;44.9
79513;SHT31;68962;51.980;5.678;2023-06-26T05:34:02;28.6;44.4
79513;SHT31;68962;51.980;5.678;2023-06-26T05:36:34;28.8;43.8
79513;SHT31;68962;51.980;5.678;2023-06-26T05:39:10;29.1;43.4
79513;SHT31;68962;51.980;5.678;2023-06-26T05:41:44;29.6;42.1
79513;SHT31;68962;51.980;5.678;2023-06-26T05:44:15;30.1;40.8
79513;SHT31;68962;51.980;5.678;2023-06-26T05:46:45;30.6;40.0
79513;SHT31;68962;51.980;5.678;2023-06-26T05:49:14;30.9;39.4
79513;SHT31;68962;51.980;5.678;2023-06-26T05:51:43;31.0;38.6
79513;SHT31;68962;51.980;5.678;2023-06-26T05:54:12;31.1;38.4
79513;SHT31;68962;51.980;5.678;2023-06-26T05:56:42;31.3;38.0
79513;SHT31;68962;51.980;5.678;2023-06-26T05:59:12;31.4;37.7
79513;SHT31;68962;51.980;5.678;2023-06-26T06:01:42;31.5;37.4
79513;SHT31;68962;51.980;5.678;2023-06-26T06:04:10;31.6;37.1
79513;SHT31;68962;51.980;5.678;2023-06-26T06:06:39;31.8;36.7
79513;SHT31;68962;51.980;5.678;2023-06-26T06:09:08;32.0;36.2
79513;SHT31;68962;51.980;5.678;2023-06-26T06:11:36;32.3;35.6
79513;SHT31;68962;51.980;5.678;2023-06-26T06:14:05;32.5;35.0
79513;SHT31;68962;51.980;5.678;2023-06-26T06:16:33;32.7;34.3
79513;SHT31;68962;51.980;5.678;2023-06-26T06:19:02;32.9;33.7
79513;SHT31;68962;51.980;5.678;2023-06-26T06:21:33;33.1;33.5
79513;SHT31;68962;51.980;5.678;2023-06-26T06:24:01;33.4;32.9
79513;SHT31;68962;51.980;5.678;2023-06-26T06:26:30;33.5;32.5
79513;SHT31;68962;51.980;5.678;2023-06-26T06:28:58;33.5;32.4
79513;SHT31;68962;51.980;5.678;2023-06-26T06:31:27;33.3;32.7
79513;SHT31;68962;51.980;5.678;2023-06-26T06:33:56;33.2;33.2
79513;SHT31;68962;51.980;5.678;2023-06-26T06:36:24;33.2;33.3
79513;SHT31;68962;51.980;5.678;2023-06-26T06:38:53;33.3;33.2
79513;SHT31;68962;51.980;5.678;2023-06-26T06:41:21;33.6;33.1
79513;SHT31;68962;51.980;5.678;2023-06-26T06:43:50;33.9;33.0
79513;SHT31;68962;51.980;5.678;2023-06-26T06:46:18;34.2;31.9
79513;SHT31;68962;51.980;5.678;2023-06-26T06:48:47;34.6;31.1
79513;SHT31;68962;51.980;5.678;2023-06-26T06:51:15;35.1;30.2
79513;SHT31;68962;51.980;5.678;2023-06-26T06:53:44;35.4;29.5
79513;SHT31;68962;51.980;5.678;2023-06-26T06:56:12;35.5;29.4
79513;SHT31;68962;51.980;5.678;2023-06-26T06:58:41;35.6;29.4
79513;SHT31;68962;51.980;5.678;2023-06-26T07:01:13;35.7;29.2
79513;SHT31;68962;51.980;5.678;2023-06-26T07:03:42;35.8;29.2
79513;SHT31;68962;51.980;5.678;2023-06-26T07:06:10;35.9;29.3
79513;SHT31;68962;51.980;5.678;2023-06-26T07:08:39;35.9;29.1
79513;SHT31;68962;51.980;5.678;2023-06-26T07:11:07;35.9;29.0
79513;SHT31;68962;51.980;5.678;2023-06-26T07:13:36;35.6;29.2
79513;SHT31;68962;51.980;5.678;2023-06-26T07:16:08;35.4;29.7
79513;SHT31;68962;51.980;5.678;2023-06-26T07:18:39;35.2;30.3
79513;SHT31;68962;51.980;5.678;2023-06-26T07:21:07;34.7;31.1
79513;SHT31;68962;51.980;5.678;2023-06-26T07:23:37;34.3;32.0
79513;SHT31;68962;51.980;5.678;2023-06-26T07:26:05;34.1;32.1
79513;SHT31;68962;51.980;5.678;2023-06-26T07:28:34;34.1;32.4
79513;SHT31;68962;51.980;5.678;2023-06-26T07:31:02;34.1;32.3
79513;SHT31;68962;51.980;5.678;2023-06-26T07:33:31;34.0;32.3
79513;SHT31;68962;51.980;5.678;2023-06-26T07:35:59;33.9;32.4
79513;SHT31;68962;51.980;5.678;2023-06-26T07:38:28;33.8;32.2
79513;SHT31;68962;51.980;5.678;2023-06-26T07:40:56;33.8;32.4
79513;SHT31;68962;51.980;5.678;2023-06-26T07:43:25;33.8;31.9
79513;SHT31;68962;51.980;5.678;2023-06-26T07:45:53;33.7;32.2
79513;SHT31;68962;51.980;5.678;2023-06-26T07:48:25;33.7;32.6
79513;SHT31;68962;51.980;5.678;2023-06-26T07:50:53;33.7;32.2
79513;SHT31;68962;51.980;5.678;2023-06-26T07:53:22;33.6;32.2
79513;SHT31;68962;51.980;5.678;2023-06-26T07:55:50;33.5;32.4
79513;SHT31;68962;51.980;5.678;2023-06-26T07:58:19;33.5;32.7
79513;SHT31;68962;51.980;5.678;2023-06-26T08:00:48;33.5;32.8
79513;SHT31;68962;51.980;5.678;2023-06-26T08:03:16;33.6;33.1
79513;SHT31;68962;51.980;5.678;2023-06-26T08:05:45;33.6;33.1
79513;SHT31;68962;51.980;5.678;2023-06-26T08:08:13;33.5;32.9
79513;SHT31;68962;51.980;5.678;2023-06-26T08:10:42;33.2;33.3
79513;SHT31;68962;51.980;5.678;2023-06-26T08:13:12;32.7;34.0
79513;SHT31;68962;51.980;5.678;2023-06-26T08:15:41;32.3;34.6
79513;SHT31;68962;51.980;5.678;2023-06-26T08:18:10;32.0;35.2
79513;SHT31;68962;51.980;5.678;2023-06-26T08:20:39;31.7;36.1
79513;SHT31;68962;51.980;5.678;2023-06-26T08:23:09;31.7;36.4
79513;SHT31;68962;51.980;5.678;2023-06-26T08:25:38;32.0;35.8
79513;SHT31;68962;51.980;5.678;2023-06-26T08:28:06;32.6;34.8
79513;SHT31;68962;51.980;5.678;2023-06-26T08:30:35;33.0;33.7
79513;SHT31;68962;51.980;5.678;2023-06-26T08:33:03;33.2;33.3
79513;SHT31;68962;51.980;5.678;2023-06-26T08:35:37;33.2;33.3
79513;SHT31;68962;51.980;5.678;2023-06-26T08:38:05;33.3;33.0
79513;SHT31;68962;51.980;5.678;2023-06-26T08:40:35;33.4;33.0
79513;SHT31;68962;51.980;5.678;2023-06-26T08:43:04;33.4;32.4
79513;SHT31;68962;51.980;5.678;2023-06-26T08:45:33;33.3;32.5
79513;SHT31;68962;51.980;5.678;2023-06-26T08:48:03;33.4;32.7
79513;SHT31;68962;51.980;5.678;2023-06-26T08:50:37;33.6;31.9
79513;SHT31;68962;51.980;5.678;2023-06-26T08:53:26;33.6;31.4
79513;SHT31;68962;51.980;5.678;2023-06-26T08:56:03;33.8;31.2
79513;SHT31;68962;51.980;5.678;2023-06-26T08:58:40;34.3;31.1
79513;SHT31;68962;51.980;5.678;2023-06-26T09:03:38;34.8;28.8
79513;SHT31;68962;51.980;5.678;2023-06-26T09:06:11;34.9;28.6
79513;SHT31;68962;51.980;5.678;2023-06-26T09:08:42;35.0;28.6
79513;SHT31;68962;51.980;5.678;2023-06-26T09:11:11;35.3;28.0
79513;SHT31;68962;51.980;5.678;2023-06-26T09:13:46;35.5;27.8
79513;SHT31;68962;51.980;5.678;2023-06-26T09:16:16;35.6;27.0
79513;SHT31;68962;51.980;5.678;2023-06-26T09:18:58;35.7;26.7
79513;SHT31;68962;51.980;5.678;2023-06-26T09:26:15;35.9;26.9
79513;SHT31;68962;51.980;5.678;2023-06-26T09:28:44;35.5;27.5
79513;SHT31;68962;51.980;5.678;2023-06-26T09:31:13;34.9;28.1
79513;SHT31;68962;51.980;5.678;2023-06-26T09:33:42;34.5;29.0
79513;SHT31;68962;51.980;5.678;2023-06-26T09:36:20;34.3;29.2
79513;SHT31;68962;51.980;5.678;2023-06-26T09:38:50;34.3;29.1
79513;SHT31;68962;51.980;5.678;2023-06-26T09:41:19;34.1;29.3
79513;SHT31;68962;51.980;5.678;2023-06-26T09:43:48;33.6;29.6
79513;SHT31;68962;51.980;5.678;2023-06-26T09:46:21;32.9;30.3
79513;SHT31;68962;51.980;5.678;2023-06-26T09:49:02;32.6;31.0
79513;SHT31;68962;51.980;5.678;2023-06-26T09:51:32;32.7;31.1
79513;SHT31;68962;51.980;5.678;2023-06-26T09:54:02;32.9;30.8
79513;SHT31;68962;51.980;5.678;2023-06-26T09:56:32;33.1;30.3
79513;SHT31;68962;51.980;5.678;2023-06-26T09:59:04;33.2;30.4
79513;SHT31;68962;51.980;5.678;2023-06-26T10:01:33;33.5;30.0
79513;SHT31;68962;51.980;5.678;2023-06-26T10:04:02;33.7;29.1
79513;SHT31;68962;51.980;5.678;2023-06-26T10:06:33;33.8;28.8
79513;SHT31;68962;51.980;5.678;2023-06-26T10:09:03;34.0;28.2
79513;SHT31;68962;51.980;5.678;2023-06-26T10:11:37;34.2;28.1
79513;SHT31;68962;51.980;5.678;2023-06-26T10:14:09;34.3;27.4
79513;SHT31;68962;51.980;5.678;2023-06-26T10:16:41;34.2;27.8
79513;SHT31;68962;51.980;5.678;2023-06-26T10:19:14;34.1;28.3
79513;SHT31;68962;51.980;5.678;2023-06-26T10:21:47;34.2;27.6
79513;SHT31;68962;51.980;5.678;2023-06-26T10:24:16;34.3;27.5
79513;SHT31;68962;51.980;5.678;2023-06-26T10:26:50;34.4;26.6
79513;SHT31;68962;51.980;5.678;2023-06-26T10:29:22;34.4;26.0
79513;SHT31;68962;51.980;5.678;2023-06-26T10:31:56;34.4;25.9
79513;SHT31;68962;51.980;5.678;2023-06-26T10:34:26;34.5;25.8
79513;SHT31;68962;51.980;5.678;2023-06-26T10:37:01;34.6;25.8
79513;SHT31;68962;51.980;5.678;2023-06-26T10:39:48;34.7;25.1
79513;SHT31;68962;51.980;5.678;2023-06-26T10:42:19;34.9;25.1
79513;SHT31;68962;51.980;5.678;2023-06-26T10:44:48;35.0;26.0
79513;SHT31;68962;51.980;5.678;2023-06-26T10:47:32;35.0;26.3
79513;SHT31;68962;51.980;5.678;2023-06-26T10:50:24;35.2;25.8
79513;SHT31;68962;51.980;5.678;2023-06-26T10:53:14;35.3;24.9
79513;SHT31;68962;51.980;5.678;2023-06-26T10:55:50;35.3;25.1
79513;SHT31;68962;51.980;5.678;2023-06-26T10:58:30;35.2;24.7
79513;SHT31;68962;51.980;5.678;2023-06-26T11:01:19;35.2;24.5
79513;SHT31;68962;51.980;5.678;2023-06-26T11:04:03;35.1;24.3
79513;SHT31;68962;51.980;5.678;2023-06-26T11:06:36;35.1;25.0
79513;SHT31;68962;51.980;5.678;2023-06-26T11:09:17;35.0;25.5
79513;SHT31;68962;51.980;5.678;2023-06-26T11:12:00;34.9;24.6
79513;SHT31;68962;51.980;5.678;2023-06-26T11:14:35;34.8;24.8
79513;SHT31;68962;51.980;5.678;2023-06-26T11:17:07;34.7;25.4
79513;SHT31;68962;51.980;5.678;2023-06-26T11:19:44;34.7;25.7
79513;SHT31;68962;51.980;5.678;2023-06-26T11:22:15;34.5;25.5
79513;SHT31;68962;51.980;5.678;2023-06-26T11:24:44;34.3;24.6
79513;SHT31;68962;51.980;5.678;2023-06-26T11:27:14;34.0;24.6
79513;SHT31;68962;51.980;5.678;2023-06-26T11:29:47;33.7;25.8
79513;SHT31;68962;51.980;5.678;2023-06-26T11:32:16;33.4;26.5
79513;SHT31;68962;51.980;5.678;2023-06-26T11:34:49;33.2;26.7
79513;SHT31;68962;51.980;5.678;2023-06-26T11:37:20;33.0;26.8
79513;SHT31;68962;51.980;5.678;2023-06-26T11:39:49;32.8;27.5
79513;SHT31;68962;51.980;5.678;2023-06-26T11:42:20;32.7;27.8
79513;SHT31;68962;51.980;5.678;2023-06-26T11:44:51;32.7;28.0
79513;SHT31;68962;51.980;5.678;2023-06-26T11:47:23;32.6;28.0
79513;SHT31;68962;51.980;5.678;2023-06-26T11:49:52;32.7;28.0
79513;SHT31;68962;51.980;5.678;2023-06-26T11:52:21;32.7;27.7
79513;SHT31;68962;51.980;5.678;2023-06-26T11:54:49;32.6;27.6
79513;SHT31;68962;51.980;5.678;2023-06-26T11:57:18;32.6;27.3
79513;SHT31;68962;51.980;5.678;2023-06-26T11:59:51;32.4;26.5
79513;SHT31;68962;51.980;5.678;2023-06-26T12:02:21;32.3;27.0
79513;SHT31;68962;51.980;5.678;2023-06-26T12:04:50;32.2;26.9
79513;SHT31;68962;51.980;5.678;2023-06-26T12:07:19;32.0;27.4
79513;SHT31;68962;51.980;5.678;2023-06-26T12:09:49;31.9;27.4
79513;SHT31;68962;51.980;5.678;2023-06-26T12:12:22;31.7;27.5
79513;SHT31;68962;51.980;5.678;2023-06-26T12:14:51;31.5;28.5
79513;SHT31;68962;51.980;5.678;2023-06-26T12:17:24;31.3;29.1
79513;SHT31;68962;51.980;5.678;2023-06-26T12:19:53;31.0;29.3
79513;SHT31;68962;51.980;5.678;2023-06-26T12:22:21;30.8;28.8
79513;SHT31;68962;51.980;5.678;2023-06-26T12:24:50;30.7;29.0
79513;SHT31;68962;51.980;5.678;2023-06-26T12:27:19;30.5;29.8
79513;SHT31;68962;51.980;5.678;2023-06-26T12:29:51;30.4;29.3
79513;SHT31;68962;51.980;5.678;2023-06-26T12:32:21;30.2;29.6
79513;SHT31;68962;51.980;5.678;2023-06-26T12:34:51;30.0;30.1
79513;SHT31;68962;51.980;5.678;2023-06-26T12:37:20;29.8;30.0
79513;SHT31;68962;51.980;5.678;2023-06-26T12:39:51;29.7;29.9
79513;SHT31;68962;51.980;5.678;2023-06-26T12:42:21;29.6;30.3
79513;SHT31;68962;51.980;5.678;2023-06-26T12:44:50;29.5;30.9
79513;SHT31;68962;51.980;5.678;2023-06-26T12:47:26;29.5;30.8
79513;SHT31;68962;51.980;5.678;2023-06-26T12:49:57;29.4;30.5
79513;SHT31;68962;51.980;5.678;2023-06-26T12:52:28;29.4;30.3
79513;SHT31;68962;51.980;5.678;2023-06-26T12:54:56;29.3;30.7
79513;SHT31;68962;51.980;5.678;2023-06-26T12:57:25;29.3;30.2
79513;SHT31;68962;51.980;5.678;2023-06-26T12:59:53;29.2;30.2
79513;SHT31;68962;51.980;5.678;2023-06-26T13:02:22;29.1;30.3
79513;SHT31;68962;51.980;5.678;2023-06-26T13:04:51;28.9;30.3
79513;SHT31;68962;51.980;5.678;2023-06-26T13:07:19;28.8;30.7
79513;SHT31;68962;51.980;5.678;2023-06-26T13:09:53;28.7;30.7
79513;SHT31;68962;51.980;5.678;2023-06-26T13:12:24;28.6;31.3
79513;SHT31;68962;51.980;5.678;2023-06-26T13:14:52;28.6;31.4
79513;SHT31;68962;51.980;5.678;2023-06-26T13:17:21;28.5;31.0
79513;SHT31;68962;51.980;5.678;2023-06-26T13:19:49;28.5;30.7
79513;SHT31;68962;51.980;5.678;2023-06-26T13:22:18;28.5;31.0
79513;SHT31;68962;51.980;5.678;2023-06-26T13:24:46;28.5;30.8
79513;SHT31;68962;51.980;5.678;2023-06-26T13:27:15;28.5;30.2
79513;SHT31;68962;51.980;5.678;2023-06-26T13:29:44;28.5;30.2
79513;SHT31;68962;51.980;5.678;2023-06-26T13:32:13;28.5;30.3
79513;SHT31;68962;51.980;5.678;2023-06-26T13:34:41;28.5;30.6
79513;SHT31;68962;51.980;5.678;2023-06-26T13:37:10;28.5;30.4
79513;SHT31;68962;51.980;5.678;2023-06-26T13:39:39;28.5;30.1
79513;SHT31;68962;51.980;5.678;2023-06-26T13:42:08;28.4;30.3
79513;SHT31;68962;51.980;5.678;2023-06-26T13:44:36;28.3;30.8
79513;SHT31;68962;51.980;5.678;2023-06-26T13:47:05;28.2;31.7
79513;SHT31;68962;51.980;5.678;2023-06-26T13:49:36;28.1;31.7
79513;SHT31;68962;51.980;5.678;2023-06-26T13:52:06;28.0;31.7
79513;SHT31;68962;51.980;5.678;2023-06-26T13:54:36;28.0;32.0
79513;SHT31;68962;51.980;5.678;2023-06-26T13:57:07;27.9;31.7
79513;SHT31;68962;51.980;5.678;2023-06-26T13:59:37;27.8;32.5
79513;SHT31;68962;51.980;5.678;2023-06-26T14:02:07;27.7;31.8
79513;SHT31;68962;51.980;5.678;2023-06-26T14:04:37;27.6;32.3
79513;SHT31;68962;51.980;5.678;2023-06-26T14:07:06;27.5;32.4
79513;SHT31;68962;51.980;5.678;2023-06-26T14:09:35;27.4;32.2
79513;SHT31;68962;51.980;5.678;2023-06-26T14:12:05;27.2;32.7
79513;SHT31;68962;51.980;5.678;2023-06-26T14:14:34;27.1;32.3
79513;SHT31;68962;51.980;5.678;2023-06-26T14:17:02;27.0;32.3
79513;SHT31;68962;51.980;5.678;2023-06-26T14:19:34;26.9;32.9
79513;SHT31;68962;51.980;5.678;2023-06-26T14:22:03;26.9;32.9
79513;SHT31;68962;51.980;5.678;2023-06-26T14:24:31;26.8;33.7
79513;SHT31;68962;51.980;5.678;2023-06-26T14:27:00;26.8;33.8
79513;SHT31;68962;51.980;5.678;2023-06-26T14:29:29;26.7;33.4
79513;SHT31;68962;51.980;5.678;2023-06-26T14:31:58;26.7;33.7
79513;SHT31;68962;51.980;5.678;2023-06-26T14:34:28;26.7;34.0
79513;SHT31;68962;51.980;5.678;2023-06-26T14:36:57;26.7;33.8
79513;SHT31;68962;51.980;5.678;2023-06-26T14:39:25;26.6;33.5
79513;SHT31;68962;51.980;5.678;2023-06-26T14:41:54;26.6;34.1
79513;SHT31;68962;51.980;5.678;2023-06-26T14:44:23;26.6;33.6
79513;SHT31;68962;51.980;5.678;2023-06-26T14:46:51;26.5;34.0
79513;SHT31;68962;51.980;5.678;2023-06-26T14:49:20;26.5;33.5
79513;SHT31;68962;51.980;5.678;2023-06-26T14:51:48;26.5;33.6
79513;SHT31;68962;51.980;5.678;2023-06-26T14:54:17;26.4;34.0
79513;SHT31;68962;51.980;5.678;2023-06-26T14:56:45;26.4;34.3
79513;SHT31;68962;51.980;5.678;2023-06-26T14:59:14;26.3;34.9
79513;SHT31;68962;51.980;5.678;2023-06-26T15:01:42;26.3;35.0
79513;SHT31;68962;51.980;5.678;2023-06-26T15:04:11;26.3;34.2
79513;SHT31;68962;51.980;5.678;2023-06-26T15:06:39;26.3;33.6
79513;SHT31;68962;51.980;5.678;2023-06-26T15:09:08;26.3;33.9
79513;SHT31;68962;51.980;5.678;2023-06-26T15:11:37;26.3;33.4
79513;SHT31;68962;51.980;5.678;2023-06-26T15:14:06;26.3;33.6
79513;SHT31;68962;51.980;5.678;2023-06-26T15:16:34;26.2;34.4
79513;SHT31;68962;51.980;5.678;2023-06-26T15:19:03;26.2;34.9
79513;SHT31;68962;51.980;5.678;2023-06-26T15:21:32;26.3;34.3
79513;SHT31;68962;51.980;5.678;2023-06-26T15:24:03;26.3;34.4
79513;SHT31;68962;51.980;5.678;2023-06-26T15:26:33;26.3;34.2
79513;SHT31;68962;51.980;5.678;2023-06-26T15:29:03;26.3;34.2
79513;SHT31;68962;51.980;5.678;2023-06-26T15:31:31;26.3;33.9
79513;SHT31;68962;51.980;5.678;2023-06-26T15:34:00;26.3;34.0
79513;SHT31;68962;51.980;5.678;2023-06-26T15:36:28;26.3;34.1
79513;SHT31;68962;51.980;5.678;2023-06-26T15:38:57;26.2;34.2
79513;SHT31;68962;51.980;5.678;2023-06-26T15:41:25;26.2;33.5
79513;SHT31;68962;51.980;5.678;2023-06-26T15:43:55;26.2;33.8
79513;SHT31;68962;51.980;5.678;2023-06-26T15:46:23;26.2;34.4
79513;SHT31;68962;51.980;5.678;2023-06-26T15:48:52;26.1;34.7
79513;SHT31;68962;51.980;5.678;2023-06-26T15:51:21;26.1;34.7
79513;SHT31;68962;51.980;5.678;2023-06-26T15:53:49;26.0;34.6
79513;SHT31;68962;51.980;5.678;2023-06-26T15:56:19;26.0;34.6
79513;SHT31;68962;51.980;5.678;2023-06-26T15:58:47;25.9;35.0
79513;SHT31;68962;51.980;5.678;2023-06-26T16:01:18;25.8;35.5
79513;SHT31;68962;51.980;5.678;2023-06-26T16:03:47;25.7;35.7
79513;SHT31;68962;51.980;5.678;2023-06-26T16:06:16;25.7;35.4
79513;SHT31;68962;51.980;5.678;2023-06-26T16:08:46;25.7;35.5
79513;SHT31;68962;51.980;5.678;2023-06-26T16:11:18;25.7;35.3
79513;SHT31;68962;51.980;5.678;2023-06-26T16:13:47;25.6;35.8
79513;SHT31;68962;51.980;5.678;2023-06-26T16:16:16;25.6;35.6
79513;SHT31;68962;51.980;5.678;2023-06-26T16:18:45;25.6;35.9
79513;SHT31;68962;51.980;5.678;2023-06-26T16:21:13;25.6;35.7
79513;SHT31;68962;51.980;5.678;2023-06-26T16:23:43;25.6;36.0
79513;SHT31;68962;51.980;5.678;2023-06-26T16:26:13;25.7;36.2
79513;SHT31;68962;51.980;5.678;2023-06-26T16:28:42;25.7;34.8
79513;SHT31;68962;51.980;5.678;2023-06-26T16:31:11;25.7;34.5
79513;SHT31;68962;51.980;5.678;2023-06-26T16:33:39;25.7;34.7